»·PEaware :: N184GS KSNA-KHMT

N184GS :: KSNA-KHMT

FLIGHT INFORMATION

Flight Status: Arrived
Operator: Privately registered:
United States
More flights under this callsign
Pilot: Todd T. (13067)
Aircraft: CESSNA 172 SKYHAWK
(C172)
More flights by this aircraft type
Origin: KSNA John Wayne-Orange Co
United States
Destination: KHMT Hemet-Ryan
United States
More flights between these airports :: More routes between these airports
Route:
File this flight plan on PilotEdge
Remarks: FF
Altitude:
(Current/Filed)
7,500ft
Speed:
(Current/Filed)
0kts
Departed: 11-Oct-18 04:33 PM
Arrived: 11-Oct-18 05:02 PM
Distance/Time
Traveled:
41nm/0:28
Distance/Time
To Go:
Arrived

Flight Plot

Page will automatically refresh every two minutes.


Map Options




Map Legend


Flown Route
Filed Route
Departure Airport
Arrival Airport
Navaid (VOR, NDB)
Fix

Horizontal Profiles

Position Reports

Time Latitude Longitude Heading Altitude Ground
Speed
11-Oct-18 16:26 33.672635 -117.866174 258 48ft 0kts
11-Oct-18 16:27 33.672635 -117.866174 258 48ft 0kts
11-Oct-18 16:28 33.672635 -117.866174 258 48ft 0kts
11-Oct-18 16:29 33.672737 -117.866859 303 48ft 0kts
11-Oct-18 16:30 33.673412 -117.866973 2 48ft 12kts
11-Oct-18 16:31 33.677186 -117.865168 27 49ft 17kts
11-Oct-18 16:32 33.679981 -117.863644 298 55ft 0kts
11-Oct-18 16:33 33.679981 -117.863644 298 55ft 0kts
11-Oct-18 16:34 33.679981 -117.863645 298 55ft 0kts
11-Oct-18 16:35 33.677620 -117.865732 206 50ft 64kts
11-Oct-18 16:36 33.661500 -117.871696 150 836ft 82kts
11-Oct-18 16:37 33.657227 -117.839216 97 2024ft 86kts
11-Oct-18 16:38 33.656036 -117.814877 97 2819ft 87kts
11-Oct-18 16:39 33.654469 -117.785424 98 3682ft 94kts
11-Oct-18 16:40 33.652978 -117.748767 100 4664ft 96kts
11-Oct-18 16:41 33.650809 -117.721854 95 5335ft 97kts
11-Oct-18 16:42 33.650034 -117.683678 97 6218ft 99kts
11-Oct-18 16:43 33.647742 -117.650838 102 6935ft 100kts
11-Oct-18 16:44 33.646635 -117.621722 97 7353ft 114kts
11-Oct-18 16:45 33.645565 -117.583605 84 7529ft 112kts
11-Oct-18 16:46 33.650160 -117.546272 81 7559ft 113kts
11-Oct-18 16:47 33.655382 -117.509022 80 7603ft 112kts
11-Oct-18 16:48 33.662479 -117.472421 76 7624ft 112kts
11-Oct-18 16:49 33.668175 -117.435465 83 7634ft 113kts
11-Oct-18 16:50 33.672331 -117.398248 84 7656ft 113kts
11-Oct-18 16:51 33.675882 -117.361004 79 7154ft 111kts
11-Oct-18 16:52 33.679580 -117.324938 84 6386ft 109kts
11-Oct-18 16:53 33.681580 -117.288395 91 5535ft 109kts
11-Oct-18 16:54 33.676410 -117.246682 98 4502ft 108kts
11-Oct-18 16:55 33.674056 -117.217130 94 3876ft 105kts
11-Oct-18 16:56 33.673429 -117.181636 87 3375ft 105kts
11-Oct-18 16:57 33.675394 -117.146565 84 3103ft 106kts
11-Oct-18 16:58 33.679024 -117.111669 80 2993ft 105kts
11-Oct-18 16:59 33.691219 -117.080616 50 2901ft 103kts
11-Oct-18 17:00 33.708741 -117.053930 56 2618ft 100kts
11-Oct-18 17:01 33.720008 -117.025664 68 2212ft 88kts
11-Oct-18 17:02 33.728979 -117.001275 67 2047ft 72kts
11-Oct-18 17:03 33.740237 -117.004538 272 1907ft 76kts
11-Oct-18 17:04 33.732938 -117.024059 227 1512ft 13kts
11-Oct-18 17:05 33.730769 -117.022413 127 1512ft 0kts
11-Oct-18 17:06 33.730769 -117.022413 127 1512ft 0kts
11-Oct-18 17:07 33.730769 -117.022413 127 1512ft 0kts
11-Oct-18 17:08 33.730769 -117.022413 127 1512ft 0kts
11-Oct-18 17:09 33.730769 -117.022413 127 1512ft 0kts
11-Oct-18 17:10 33.730769 -117.022413 127 1512ft 0kts
11-Oct-18 17:11 33.730769 -117.022413 127 1512ft 0kts
11-Oct-18 17:12 33.730758 -117.022385 101 1512ft 1kts
11-Oct-18 17:13 33.732522 -117.023155 62 1512ft 13kts
11-Oct-18 17:14 33.734565 -117.018295 62 1512ft 14kts
11-Oct-18 17:15 33.735490 -117.016389 10 1512ft 1kts
11-Oct-18 17:16 33.733896 -117.021759 242 1515ft 78kts
11-Oct-18 17:17 33.720309 -117.043962 213 2470ft 84kts
11-Oct-18 17:18 33.695779 -117.051726 192 3317ft 94kts

Navigation Log

Ident Type
1. KSNA Airport
2. KHMT Airport